Flight Track Log - Related Links

Times and Time Zones

All times are in EDT time to prevent confusion due to time zone crossing. See the SKW6345 flight status page for this flight to view local times or setup timezone preferences in your user account.

Time Position Orientation Groundspeed Altitude Reporting Facility
EDT Latitude Longitude Course Direction KTS MPH feet Rate Location/Type
Wed 11:21:19 AM 37.6333 -122.3500 38° Northeast 166 191 1,400  Level Northern Cal TRACON
Wed 11:22:19 AM 37.6833 -122.3000 38° Northeast 230 265 3,300 2,106 Climbing Northern Cal TRACON
Wed 11:23:50 AM 37.7589 -122.1967 47° Northeast 278 320 6,700 2,211 Climbing Oakland Center
Wed 11:24:00 AM 37.7124 -122.2710 38° Northeast  Level FlightAware Approximate
Wed 11:24:51 AM 37.8267 -122.1333 36° Northeast 302 348 8,900  Level Oakland Center
Wed 11:25:00 AM 37.8222 -122.1611 38° Northeast  Level FlightAware Approximate
Wed 11:25:53 AM 37.8969 -122.0661 37° Northeast 317 365 10,500  Level Oakland Center
Wed 11:26:00 AM 37.9321 -122.0512 38° Northeast  Level FlightAware Approximate
Wed 11:26:54 AM 37.9742 -121.9944 36° Northeast 343 395 12,300  Level Oakland Center
Wed 11:27:55 AM 38.0525 -121.9208 36° Northeast 352 405 14,000 1,574 Climbing Oakland Center
Wed 11:28:56 AM 38.1333 -121.8444 37° Northeast 362 417 15,500 1,463 Climbing Oakland Center
Wed 11:29:58 AM 38.2317 -121.7514 37° Northeast 370 426 17,000 1,220 Climbing Oakland Center
Wed 11:30:59 AM 38.3172 -121.6714 36° Northeast 380 437 18,000 1,033 Climbing Oakland Center
Wed 11:32:00 AM 38.4044 -121.5878 37° Northeast 393 452 19,100 1,082 Climbing Oakland Center
Wed 11:33:01 AM 38.4819 -121.4847 46° Northeast 408 470 20,200 927 Climbing Oakland Center
Wed 11:34:03 AM 38.5489 -121.3697 53° Northeast 406 467 21,000 878 Climbing Oakland Center
Wed 11:35:04 AM 38.6189 -121.2481 54° Northeast 421 484 22,000 934 Climbing Oakland Center
Wed 11:36:05 AM 38.6875 -121.1347 52° Northeast 419 482 22,900 787 Climbing Oakland Center
Wed 11:37:06 AM 38.7578 -121.0119 54° Northeast 424 488 23,600 878 Climbing Oakland Center
Wed 11:38:08 AM 38.8433 -120.8625 54° Northeast 432 497 24,700 878 Climbing Oakland Center
Wed 11:39:09 AM 38.9153 -120.7369 54° Northeast 435 501 25,400 689 Climbing Oakland Center
Wed 11:40:10 AM 38.9886 -120.6108 53° Northeast 440 506 26,100 639 Climbing Oakland Center
Wed 11:41:11 AM 39.0636 -120.4822 53° Northeast 446 513 26,700 585 Climbing Oakland Center
Wed 11:42:13 AM 39.1700 -120.4014 30° Northeast 448 516 27,300 537 Climbing Oakland Center
Wed 11:43:14 AM 39.2772 -120.3256 29° Northeast 442 509 27,800 492 Climbing Oakland Center
Wed 11:44:15 AM 39.3881 -120.2492 28° Northeast 447 514 28,300 488 Climbing Oakland Center
Wed 11:45:17 AM 39.5003 -120.1694 29° Northeast 458 527 28,800 537 Climbing Oakland Center
Wed 11:46:18 AM 39.6256 -120.0839 28° Northeast 460 529 29,400 541 Climbing Oakland Center
Wed 11:47:19 AM 39.7367 -120.0039 29° Northeast 456 525 29,900 488 Climbing Oakland Center
Wed 11:48:21 AM 39.8472 -119.9239 29° Northeast 453 521 30,400 488 Climbing Oakland Center
Wed 11:49:22 AM 39.9597 -119.8442 29° Northeast 457 526 30,900 492 Climbing Oakland Center
Wed 11:50:23 AM 40.0706 -119.7650 29° Northeast 453 521 31,400 537 Climbing Oakland Center
Wed 11:51:25 AM 40.1794 -119.6858 29° Northeast 446 513 32,000 537 Climbing Oakland Center
Wed 11:52:26 AM 40.2894 -119.6056 29° Northeast 450 518 32,500 492 Climbing Oakland Center
Wed 11:53:27 AM 40.3978 -119.5272 29° Northeast 445 512 33,000 244 Climbing Oakland Center
Wed 11:54:29 AM 40.5283 -119.4325 29° Northeast 445 512 33,000  Level Oakland Center
Wed 11:55:30 AM 40.6406 -119.3500 29° Northeast 457 526 33,000  Level Oakland Center
Wed 11:56:31 AM 40.7564 -119.2653 29° Northeast 471 542 33,000  Level Oakland Center
Wed 11:57:33 AM 40.8658 -119.1836 29° Northeast 470 541 33,000  Level Oakland Center
Wed 11:58:13 AM 40.9400 -119.1297 29° Northeast 471 542 33,000  Level Salt Lake Center
Wed 11:59:15 AM 41.0661 -119.0367 29° Northeast 466 536 33,000  Level Salt Lake Center
Wed 12:00:17 PM 41.1728 -118.9583 29° Northeast 461 531 33,000  Level Salt Lake Center
Wed 12:01:19 PM 41.2794 -118.8786 29° Northeast 459 528 33,000  Level Salt Lake Center
Wed 12:02:21 PM 41.4047 -118.7831 30° Northeast 462 532 33,000  Level Salt Lake Center
Wed 12:03:23 PM 41.5119 -118.7031 29° Northeast 462 532 33,000  Level Salt Lake Center
Wed 12:04:25 PM 41.6386 -118.6067 30° Northeast 466 536 33,000  Level Salt Lake Center
Wed 12:05:27 PM 41.7458 -118.5258 29° Northeast 461 531 33,000  Level Salt Lake Center
Wed 12:06:29 PM 41.8703 -118.4297 30° Northeast 461 531 33,000  Level Salt Lake Center
Wed 12:07:31 PM 41.9775 -118.3492 29° Northeast 461 531 33,000  Level Salt Lake Center
Wed 12:08:33 PM 42.1025 -118.2511 30° Northeast 463 533 33,000  Level Salt Lake Center
Wed 12:09:35 PM 42.2108 -118.1683 30° Northeast 466 536 33,000  Level Salt Lake Center
Wed 12:10:36 PM 42.3275 -118.0725 31° Northeast 463 533 33,000  Level Salt Lake Center
Wed 12:11:38 PM 42.4347 -117.9872 30° Northeast 464 534 33,000  Level Salt Lake Center
Wed 12:12:40 PM 42.5606 -117.8903 30° Northeast 467 537 33,000  Level Salt Lake Center
Wed 12:13:42 PM 42.6447 -117.7633 48° Northeast 473 544 33,000  Level Salt Lake Center
Wed 12:14:44 PM 42.7336 -117.6019 53° Northeast 475 547 33,000  Level Salt Lake Center
Wed 12:15:46 PM 42.8089 -117.4628 54° Northeast 477 549 33,000  Level Salt Lake Center
Wed 12:16:48 PM 42.8967 -117.2989 54° Northeast 480 552 33,000  Level Salt Lake Center
Wed 12:17:50 PM 42.9722 -117.1594 53° Northeast 478 550 33,000  Level Salt Lake Center
Wed 12:18:52 PM 43.0603 -116.9956 54° Northeast 479 551 33,000  Level Salt Lake Center
Wed 12:19:54 PM 43.1353 -116.8569 53° Northeast 475 547 33,000  Level Salt Lake Center
Wed 12:20:56 PM 43.2219 -116.6875 55° Northeast 483 556 33,000  Level Salt Lake Center
Wed 12:21:58 PM 43.2969 -116.5456 54° Northeast 482 555 33,000  Level Salt Lake Center
Wed 12:23:00 PM 43.3725 -116.4028 54° Northeast 482 555 33,000  Level Salt Lake Center
Wed 12:24:02 PM 43.4586 -116.2347 55° Northeast 481 554 33,000  Level Salt Lake Center
Wed 12:25:04 PM 43.5333 -116.0922 54° Northeast 482 555 33,000  Level Salt Lake Center
Wed 12:26:06 PM 43.6192 -115.9239 55° Northeast 481 554 33,000  Level Salt Lake Center
Wed 12:27:07 PM 43.6925 -115.7800 55° Northeast 481 554 33,000  Level Salt Lake Center
Wed 12:28:09 PM 43.7786 -115.6103 55° Northeast 485 558 33,000  Level Salt Lake Center
Wed 12:29:11 PM 43.8522 -115.4636 55° Northeast 485 558 33,000  Level Salt Lake Center
Wed 12:30:13 PM 43.9383 -115.2928 55° Northeast 483 556 33,000  Level Salt Lake Center
Wed 12:31:15 PM 44.0131 -115.1444 55° Northeast 489 563 33,000  Level Salt Lake Center
Wed 12:32:17 PM 44.0975 -114.9722 56° Northeast 486 559 33,000  Level Salt Lake Center
Wed 12:33:19 PM 44.1706 -114.8231 56° Northeast 487 560 33,000  Level Salt Lake Center
Wed 12:34:21 PM 44.2567 -114.6483 55° Northeast 491 565 33,000  Level Salt Lake Center
Wed 12:35:23 PM 44.3303 -114.4983 56° Northeast 490 564 33,000  Level Salt Lake Center
Wed 12:36:25 PM 44.4161 -114.3217 56° Northeast 492 566 33,000  Level Salt Lake Center
Wed 12:37:27 PM 44.4897 -114.1706 56° Northeast 492 566 33,000  Level Salt Lake Center
Wed 12:38:28 PM 44.5761 -113.9917 56° Northeast 496 571 33,000  Level Salt Lake Center
Wed 12:39:30 PM 44.6436 -113.8444 57° Northeast 488 562 33,000  Level Salt Lake Center
Wed 12:40:32 PM 44.7283 -113.6644 56° Northeast 494 568 33,000  Level Salt Lake Center
Wed 12:41:34 PM 44.8014 -113.5106 56° Northeast 495 570 33,000  Level Salt Lake Center
Wed 12:42:36 PM 44.8742 -113.3556 56° Northeast 494 568 33,000  Level Salt Lake Center
Wed 12:43:38 PM 44.9583 -113.1761 56° Northeast 490 564 33,000  Level Salt Lake Center
Wed 12:44:40 PM 45.0300 -113.0211 57° Northeast 492 566 33,000  Level Salt Lake Center
Wed 12:45:42 PM 45.1144 -112.8411 56° Northeast 492 566 33,000 -1,122 Level Salt Lake Center
Wed 12:46:43 PM 45.1858 -112.6831 57° Northeast 496 571 30,700 -2,780 Descending Salt Lake Center
Wed 12:47:45 PM 45.2700 -112.4953 57° Northeast 501 577 27,300 -3,048 Descending Salt Lake Center
Wed 12:48:47 PM 45.3331 -112.3300 61° Northeast 498 573 24,400 -2,758 Descending Salt Lake Center
Wed 12:49:49 PM 45.3953 -112.1736 60° Northeast 485 558 21,600 -2,661 Descending Salt Lake Center
Wed 12:50:51 PM 45.4578 -112.0144 61° Northeast 467 537 18,900 -2,806 Descending Salt Lake Center
Wed 12:51:53 PM 45.5256 -111.8364 61° Northeast 433 498 15,800 -2,683 Descending Salt Lake Center
Wed 12:52:54 PM 45.5786 -111.6983 61° Northeast 406 467 13,400 -1,415 Descending Salt Lake Center
Wed 12:53:56 PM 45.6256 -111.5747 61° Northeast 366 421 12,900 -194 Descending Salt Lake Center
Wed 12:54:58 PM 45.7047 -111.5208 25° Northeast 332 382 13,000 -145 Climbing Salt Lake Center
Wed 12:56:00 PM 45.7906 -111.4836 17° North 325 374 12,600 -1,258 Descending Salt Lake Center
Wed 12:57:02 PM 45.8658 -111.4494 18° North 302 348 10,400 -1,742 Descending Salt Lake Center
Wed 12:58:04 PM 45.9269 -111.4000 29° Northeast 279 321 9,000 -1,113 Descending Salt Lake Center
Wed 12:59:06 PM 45.9081 -111.3019 105° East 266 306 8,100 -878 Descending Salt Lake Center
Wed 01:00:07 PM 45.8778 -111.2144 116° Southeast 254 292 7,200 -683 Descending Salt Lake Center
Wed 01:01:09 PM 45.8361 -111.1261 124° Southeast 229 264 6,700 -339 Descending Salt Lake Center
Wed 01:02:11 PM 45.7983 -111.0844 142° Southeast 217 250 6,500 -194 Descending Salt Lake Center

Login

Don't have an account? Register now (free) for customized features, flight alerts, and more!